sensor_id;sensor_type;location;lat;lon;timestamp;pressure;altitude;pressure_sealevel;temperature;humidity
63339;BME280;70568;51.378;-1.342;2023-12-14T00:02:09;100281.29;;;0.63;37.45
63339;BME280;70568;51.378;-1.342;2023-12-14T00:04:36;100287.15;;;-0.22;38.13
63339;BME280;70568;51.378;-1.342;2023-12-14T00:07:03;100297.57;;;1.11;37.88
63339;BME280;70568;51.378;-1.342;2023-12-14T00:09:30;100306.67;;;0.48;38.82
63339;BME280;70568;51.378;-1.342;2023-12-14T00:11:57;100308.68;;;0.47;39.07
63339;BME280;70568;51.378;-1.342;2023-12-14T00:14:24;100311.40;;;0.94;39.46
63339;BME280;70568;51.378;-1.342;2023-12-14T00:16:50;100320.67;;;0.18;39.42
63339;BME280;70568;51.378;-1.342;2023-12-14T00:19:16;100320.38;;;-0.02;39.74
63339;BME280;70568;51.378;-1.342;2023-12-14T00:21:43;100323.46;;;0.65;39.26
63339;BME280;70568;51.378;-1.342;2023-12-14T00:24:09;100323.32;;;0.30;39.70
63339;BME280;70568;51.378;-1.342;2023-12-14T00:26:36;100323.99;;;-0.06;39.49
63339;BME280;70568;51.378;-1.342;2023-12-14T00:29:03;100330.57;;;0.32;41.49
63339;BME280;70568;51.378;-1.342;2023-12-14T00:31:29;100333.18;;;-1.06;41.72
63339;BME280;70568;51.378;-1.342;2023-12-14T00:33:56;100333.51;;;-0.29;39.71
63339;BME280;70568;51.378;-1.342;2023-12-14T00:36:22;100327.70;;;-0.02;39.19
63339;BME280;70568;51.378;-1.342;2023-12-14T00:38:49;100327.05;;;0.37;39.12
63339;BME280;70568;51.378;-1.342;2023-12-14T00:41:16;100329.97;;;0.74;37.79
63339;BME280;70568;51.378;-1.342;2023-12-14T00:43:42;100330.18;;;1.99;35.85
63339;BME280;70568;51.378;-1.342;2023-12-14T00:46:09;100344.58;;;1.90;36.21
63339;BME280;70568;51.378;-1.342;2023-12-14T00:48:35;100348.17;;;1.24;36.91
63339;BME280;70568;51.378;-1.342;2023-12-14T00:51:03;100344.48;;;0.86;36.15
63339;BME280;70568;51.378;-1.342;2023-12-14T00:53:29;100340.73;;;1.54;35.62
63339;BME280;70568;51.378;-1.342;2023-12-14T00:55:56;100338.74;;;1.19;34.85
63339;BME280;70568;51.378;-1.342;2023-12-14T00:58:22;100338.30;;;2.40;34.09
63339;BME280;70568;51.378;-1.342;2023-12-14T01:00:49;100337.48;;;2.03;33.29
63339;BME280;70568;51.378;-1.342;2023-12-14T01:03:15;100339.66;;;1.80;32.97
63339;BME280;70568;51.378;-1.342;2023-12-14T01:05:43;100345.14;;;2.28;33.90
63339;BME280;70568;51.378;-1.342;2023-12-14T01:08:09;100350.14;;;0.99;34.49
63339;BME280;70568;51.378;-1.342;2023-12-14T01:10:36;100357.00;;;2.16;34.44
63339;BME280;70568;51.378;-1.342;2023-12-14T01:13:04;100362.05;;;2.10;35.57
63339;BME280;70568;51.378;-1.342;2023-12-14T01:15:31;100364.07;;;0.29;36.75
63339;BME280;70568;51.378;-1.342;2023-12-14T01:17:57;100364.99;;;1.20;37.38
63339;BME280;70568;51.378;-1.342;2023-12-14T01:20:24;100362.69;;;0.20;39.01
63339;BME280;70568;51.378;-1.342;2023-12-14T01:22:50;100357.99;;;0.78;38.04
63339;BME280;70568;51.378;-1.342;2023-12-14T01:25:17;100359.99;;;-0.26;37.95
63339;BME280;70568;51.378;-1.342;2023-12-14T01:27:44;100366.74;;;0.42;38.18
63339;BME280;70568;51.378;-1.342;2023-12-14T01:30:11;100368.22;;;-0.77;38.07
63339;BME280;70568;51.378;-1.342;2023-12-14T01:32:38;100370.95;;;-1.14;37.72
63339;BME280;70568;51.378;-1.342;2023-12-14T01:35:05;100373.51;;;0.36;38.17
63339;BME280;70568;51.378;-1.342;2023-12-14T01:37:32;100382.35;;;-0.07;39.22
63339;BME280;70568;51.378;-1.342;2023-12-14T01:39:58;100388.57;;;0.15;40.23
63339;BME280;70568;51.378;-1.342;2023-12-14T01:42:25;100394.14;;;-0.14;40.65
63339;BME280;70568;51.378;-1.342;2023-12-14T01:44:51;100398.31;;;0.41;41.19
63339;BME280;70568;51.378;-1.342;2023-12-14T01:47:19;100396.95;;;-1.69;40.62
63339;BME280;70568;51.378;-1.342;2023-12-14T01:49:46;100401.66;;;1.03;39.37
63339;BME280;70568;51.378;-1.342;2023-12-14T01:52:12;100405.82;;;-0.71;38.14
63339;BME280;70568;51.378;-1.342;2023-12-14T01:54:39;100404.12;;;0.21;36.88
63339;BME280;70568;51.378;-1.342;2023-12-14T01:57:06;100412.10;;;-0.36;37.87
63339;BME280;70568;51.378;-1.342;2023-12-14T01:59:32;100412.75;;;-0.77;38.30
63339;BME280;70568;51.378;-1.342;2023-12-14T02:01:59;100415.92;;;-1.05;38.61
63339;BME280;70568;51.378;-1.342;2023-12-14T02:04:26;100413.32;;;-0.78;38.40
63339;BME280;70568;51.378;-1.342;2023-12-14T02:06:53;100410.58;;;-0.09;37.58
63339;BME280;70568;51.378;-1.342;2023-12-14T02:09:19;100408.51;;;-0.02;35.53
63339;BME280;70568;51.378;-1.342;2023-12-14T02:11:46;100403.39;;;1.61;34.35
63339;BME280;70568;51.378;-1.342;2023-12-14T02:14:13;100402.52;;;1.99;33.71
63339;BME280;70568;51.378;-1.342;2023-12-14T02:16:39;100404.04;;;1.84;34.24
63339;BME280;70568;51.378;-1.342;2023-12-14T02:19:06;100406.94;;;-0.09;35.03
63339;BME280;70568;51.378;-1.342;2023-12-14T02:21:33;100408.95;;;1.26;36.19
63339;BME280;70568;51.378;-1.342;2023-12-14T02:24:00;100415.30;;;-0.36;37.95
63339;BME280;70568;51.378;-1.342;2023-12-14T02:26:27;100409.33;;;0.26;37.60
63339;BME280;70568;51.378;-1.342;2023-12-14T02:28:54;100404.86;;;0.39;36.52
63339;BME280;70568;51.378;-1.342;2023-12-14T02:31:20;100396.58;;;0.70;35.97
63339;BME280;70568;51.378;-1.342;2023-12-14T02:33:47;100398.33;;;1.62;33.49
63339;BME280;70568;51.378;-1.342;2023-12-14T02:36:14;100403.97;;;2.53;32.69
63339;BME280;70568;51.378;-1.342;2023-12-14T02:38:40;100403.19;;;0.08;33.04
63339;BME280;70568;51.378;-1.342;2023-12-14T02:41:07;100401.45;;;2.46;31.89
63339;BME280;70568;51.378;-1.342;2023-12-14T02:43:34;100407.05;;;3.59;30.48
63339;BME280;70568;51.378;-1.342;2023-12-14T02:46:01;100406.42;;;3.02;31.88
63339;BME280;70568;51.378;-1.342;2023-12-14T02:48:28;100412.49;;;3.26;33.15
63339;BME280;70568;51.378;-1.342;2023-12-14T02:50:55;100414.00;;;1.58;34.54
63339;BME280;70568;51.378;-1.342;2023-12-14T02:53:21;100424.56;;;-0.32;36.96
63339;BME280;70568;51.378;-1.342;2023-12-14T02:55:48;100419.35;;;0.44;37.35
63339;BME280;70568;51.378;-1.342;2023-12-14T02:58:14;100417.04;;;0.29;36.95
63339;BME280;70568;51.378;-1.342;2023-12-14T03:00:41;100426.74;;;0.79;35.88
63339;BME280;70568;51.378;-1.342;2023-12-14T03:03:08;100426.25;;;0.56;35.65
63339;BME280;70568;51.378;-1.342;2023-12-14T03:05:36;100429.85;;;-0.11;35.70
63339;BME280;70568;51.378;-1.342;2023-12-14T03:08:03;100423.36;;;0.57;35.49
63339;BME280;70568;51.378;-1.342;2023-12-14T03:10:30;100427.08;;;0.31;36.27
63339;BME280;70568;51.378;-1.342;2023-12-14T03:12:56;100425.00;;;0.11;37.07
63339;BME280;70568;51.378;-1.342;2023-12-14T03:15:23;100415.88;;;-0.43;36.19
63339;BME280;70568;51.378;-1.342;2023-12-14T03:17:50;100418.60;;;0.09;36.12
63339;BME280;70568;51.378;-1.342;2023-12-14T03:20:16;100411.70;;;0.99;35.89
63339;BME280;70568;51.378;-1.342;2023-12-14T03:22:43;100410.57;;;0.60;34.59
63339;BME280;70568;51.378;-1.342;2023-12-14T03:25:09;100413.01;;;2.94;32.44
63339;BME280;70568;51.378;-1.342;2023-12-14T03:27:36;100424.58;;;1.89;33.42
63339;BME280;70568;51.378;-1.342;2023-12-14T03:30:04;100420.96;;;2.27;33.01
63339;BME280;70568;51.378;-1.342;2023-12-14T03:32:31;100421.43;;;2.34;32.97
63339;BME280;70568;51.378;-1.342;2023-12-14T03:34:58;100426.00;;;2.27;32.94
63339;BME280;70568;51.378;-1.342;2023-12-14T03:37:24;100439.74;;;1.57;35.32
63339;BME280;70568;51.378;-1.342;2023-12-14T03:39:51;100440.57;;;0.29;36.71
63339;BME280;70568;51.378;-1.342;2023-12-14T03:42:17;100444.67;;;-0.21;37.78
63339;BME280;70568;51.378;-1.342;2023-12-14T03:44:44;100447.10;;;-0.12;39.51
63339;BME280;70568;51.378;-1.342;2023-12-14T03:47:10;100449.36;;;-1.49;40.60
63339;BME280;70568;51.378;-1.342;2023-12-14T03:49:37;100453.57;;;-0.85;41.70
63339;BME280;70568;51.378;-1.342;2023-12-14T03:52:04;100456.40;;;-1.70;43.53
63339;BME280;70568;51.378;-1.342;2023-12-14T03:54:31;100454.57;;;-2.38;43.95
63339;BME280;70568;51.378;-1.342;2023-12-14T03:56:58;100452.58;;;-2.48;44.33
63339;BME280;70568;51.378;-1.342;2023-12-14T03:59:26;100458.34;;;-2.96;45.03
63339;BME280;70568;51.378;-1.342;2023-12-14T04:01:53;100456.45;;;-2.72;44.73
63339;BME280;70568;51.378;-1.342;2023-12-14T04:04:19;100457.63;;;-2.11;45.27
63339;BME280;70568;51.378;-1.342;2023-12-14T04:06:46;100460.67;;;-1.92;45.15
63339;BME280;70568;51.378;-1.342;2023-12-14T04:09:12;100461.23;;;-3.64;45.29
63339;BME280;70568;51.378;-1.342;2023-12-14T04:11:38;100466.19;;;-1.63;44.76
63339;BME280;70568;51.378;-1.342;2023-12-14T04:14:05;100465.50;;;-1.94;43.48
63339;BME280;70568;51.378;-1.342;2023-12-14T04:16:31;100462.64;;;0.06;42.25
63339;BME280;70568;51.378;-1.342;2023-12-14T04:18:58;100456.48;;;-0.16;41.95
63339;BME280;70568;51.378;-1.342;2023-12-14T04:21:25;100463.78;;;-1.01;42.14
63339;BME280;70568;51.378;-1.342;2023-12-14T04:23:51;100466.88;;;-2.08;42.86
63339;BME280;70568;51.378;-1.342;2023-12-14T04:26:18;100470.63;;;-0.68;42.63
63339;BME280;70568;51.378;-1.342;2023-12-14T04:28:45;100469.53;;;-1.78;42.07
63339;BME280;70568;51.378;-1.342;2023-12-14T04:31:11;100465.64;;;-1.19;40.32
63339;BME280;70568;51.378;-1.342;2023-12-14T04:33:38;100465.70;;;-0.33;39.63
63339;BME280;70568;51.378;-1.342;2023-12-14T04:36:05;100469.57;;;-0.30;38.89
63339;BME280;70568;51.378;-1.342;2023-12-14T04:38:32;100473.96;;;0.91;37.99
63339;BME280;70568;51.378;-1.342;2023-12-14T04:40:59;100475.68;;;1.08;37.37
63339;BME280;70568;51.378;-1.342;2023-12-14T04:43:26;100480.58;;;0.47;36.32
63339;BME280;70568;51.378;-1.342;2023-12-14T04:45:52;100485.29;;;1.70;36.09
63339;BME280;70568;51.378;-1.342;2023-12-14T04:48:19;100487.62;;;0.96;36.65
63339;BME280;70568;51.378;-1.342;2023-12-14T04:50:45;100487.27;;;1.32;36.46
63339;BME280;70568;51.378;-1.342;2023-12-14T04:53:13;100488.92;;;0.37;36.38
63339;BME280;70568;51.378;-1.342;2023-12-14T04:55:40;100490.85;;;1.58;36.72
63339;BME280;70568;51.378;-1.342;2023-12-14T04:58:07;100495.14;;;0.40;37.78
63339;BME280;70568;51.378;-1.342;2023-12-14T05:00:34;100496.62;;;0.23;38.09
63339;BME280;70568;51.378;-1.342;2023-12-14T05:03:02;100502.88;;;-0.36;38.08
63339;BME280;70568;51.378;-1.342;2023-12-14T05:05:29;100502.55;;;-0.38;38.29
63339;BME280;70568;51.378;-1.342;2023-12-14T05:07:55;100504.36;;;0.59;38.32
63339;BME280;70568;51.378;-1.342;2023-12-14T05:10:22;100510.52;;;0.24;37.79
63339;BME280;70568;51.378;-1.342;2023-12-14T05:12:48;100512.74;;;-0.62;38.16
63339;BME280;70568;51.378;-1.342;2023-12-14T05:15:15;100515.18;;;1.05;37.46
63339;BME280;70568;51.378;-1.342;2023-12-14T05:17:42;100514.33;;;0.14;36.89
63339;BME280;70568;51.378;-1.342;2023-12-14T05:20:09;100513.08;;;1.58;36.89
63339;BME280;70568;51.378;-1.342;2023-12-14T05:22:36;100502.86;;;-0.04;37.16
63339;BME280;70568;51.378;-1.342;2023-12-14T05:25:03;100500.05;;;0.74;36.30
63339;BME280;70568;51.378;-1.342;2023-12-14T05:27:30;100498.87;;;1.43;37.13
63339;BME280;70568;51.378;-1.342;2023-12-14T05:29:56;100500.51;;;0.10;37.89
63339;BME280;70568;51.378;-1.342;2023-12-14T05:32:23;100503.50;;;0.32;38.48
63339;BME280;70568;51.378;-1.342;2023-12-14T05:34:50;100508.63;;;0.89;38.43
63339;BME280;70568;51.378;-1.342;2023-12-14T05:37:17;100520.91;;;-0.48;39.46
63339;BME280;70568;51.378;-1.342;2023-12-14T05:39:43;100526.38;;;-0.39;39.99
63339;BME280;70568;51.378;-1.342;2023-12-14T05:42:10;100517.49;;;0.05;39.75
63339;BME280;70568;51.378;-1.342;2023-12-14T05:44:37;100508.61;;;0.09;37.13
63339;BME280;70568;51.378;-1.342;2023-12-14T05:47:04;100507.91;;;1.37;35.21
63339;BME280;70568;51.378;-1.342;2023-12-14T05:49:31;100498.99;;;1.45;34.34
63339;BME280;70568;51.378;-1.342;2023-12-14T05:51:58;100501.75;;;2.07;32.80
63339;BME280;70568;51.378;-1.342;2023-12-14T05:54:25;100510.07;;;3.23;32.02
63339;BME280;70568;51.378;-1.342;2023-12-14T05:56:52;100507.20;;;2.72;31.86
63339;BME280;70568;51.378;-1.342;2023-12-14T05:59:19;100507.47;;;3.26;31.97
63339;BME280;70568;51.378;-1.342;2023-12-14T06:01:45;100515.11;;;3.71;31.48
63339;BME280;70568;51.378;-1.342;2023-12-14T06:04:12;100514.12;;;4.27;31.67
63339;BME280;70568;51.378;-1.342;2023-12-14T06:06:39;100513.84;;;2.61;31.98
63339;BME280;70568;51.378;-1.342;2023-12-14T06:09:05;100516.53;;;2.54;32.08
63339;BME280;70568;51.378;-1.342;2023-12-14T06:11:32;100518.07;;;1.40;31.16
63339;BME280;70568;51.378;-1.342;2023-12-14T06:13:59;100515.67;;;3.26;30.22
63339;BME280;70568;51.378;-1.342;2023-12-14T06:16:25;100518.14;;;2.10;30.03
63339;BME280;70568;51.378;-1.342;2023-12-14T06:18:52;100522.09;;;3.62;29.62
63339;BME280;70568;51.378;-1.342;2023-12-14T06:21:19;100519.73;;;2.74;29.32
63339;BME280;70568;51.378;-1.342;2023-12-14T06:23:45;100509.31;;;3.19;28.92
63339;BME280;70568;51.378;-1.342;2023-12-14T06:26:12;100507.52;;;3.51;28.73
63339;BME280;70568;51.378;-1.342;2023-12-14T06:28:39;100517.40;;;3.75;28.35
63339;BME280;70568;51.378;-1.342;2023-12-14T06:31:05;100519.02;;;3.66;28.46
63339;BME280;70568;51.378;-1.342;2023-12-14T06:33:32;100523.38;;;2.98;28.49
63339;BME280;70568;51.378;-1.342;2023-12-14T06:36:03;100527.88;;;3.41;28.59
63339;BME280;70568;51.378;-1.342;2023-12-14T06:38:29;100532.59;;;4.73;27.91
63339;BME280;70568;51.378;-1.342;2023-12-14T06:40:56;100534.04;;;3.92;28.33
63339;BME280;70568;51.378;-1.342;2023-12-14T06:43:23;100539.36;;;4.08;28.52
63339;BME280;70568;51.378;-1.342;2023-12-14T06:45:50;100541.78;;;3.71;27.90
63339;BME280;70568;51.378;-1.342;2023-12-14T06:48:17;100546.58;;;3.19;27.81
63339;BME280;70568;51.378;-1.342;2023-12-14T06:50:44;100544.52;;;3.35;27.37
63339;BME280;70568;51.378;-1.342;2023-12-14T06:53:11;100543.94;;;5.55;26.91
63339;BME280;70568;51.378;-1.342;2023-12-14T06:55:37;100548.13;;;6.09;27.20
63339;BME280;70568;51.378;-1.342;2023-12-14T06:58:04;100545.69;;;4.50;27.47
63339;BME280;70568;51.378;-1.342;2023-12-14T07:00:30;100542.68;;;5.26;27.68
63339;BME280;70568;51.378;-1.342;2023-12-14T07:02:57;100547.96;;;3.59;28.01
63339;BME280;70568;51.378;-1.342;2023-12-14T07:05:24;100546.81;;;3.57;28.27
63339;BME280;70568;51.378;-1.342;2023-12-14T07:07:50;100541.29;;;3.65;27.94
63339;BME280;70568;51.378;-1.342;2023-12-14T07:10:17;100541.15;;;4.08;28.08
63339;BME280;70568;51.378;-1.342;2023-12-14T07:12:43;100543.84;;;4.53;27.75
63339;BME280;70568;51.378;-1.342;2023-12-14T07:15:10;100549.10;;;4.48;28.20
63339;BME280;70568;51.378;-1.342;2023-12-14T07:17:37;100551.51;;;5.17;29.01
63339;BME280;70568;51.378;-1.342;2023-12-14T07:20:05;100554.86;;;3.80;29.78
63339;BME280;70568;51.378;-1.342;2023-12-14T07:22:32;100553.04;;;4.69;30.82
63339;BME280;70568;51.378;-1.342;2023-12-14T07:24:58;100553.26;;;3.66;32.15
63339;BME280;70568;51.378;-1.342;2023-12-14T07:27:25;100563.71;;;3.37;32.29
63339;BME280;70568;51.378;-1.342;2023-12-14T07:29:51;100574.35;;;2.95;32.84
63339;BME280;70568;51.378;-1.342;2023-12-14T07:32:19;100573.86;;;3.24;33.19
63339;BME280;70568;51.378;-1.342;2023-12-14T07:34:45;100576.07;;;2.40;32.92
63339;BME280;70568;51.378;-1.342;2023-12-14T07:37:12;100580.16;;;3.06;32.78
63339;BME280;70568;51.378;-1.342;2023-12-14T07:39:39;100583.04;;;2.66;33.09
63339;BME280;70568;51.378;-1.342;2023-12-14T07:42:06;100580.90;;;3.75;32.65
63339;BME280;70568;51.378;-1.342;2023-12-14T07:44:32;100578.44;;;2.76;32.33
63339;BME280;70568;51.378;-1.342;2023-12-14T07:47:00;100576.29;;;3.09;31.63
63339;BME280;70568;51.378;-1.342;2023-12-14T07:49:27;100577.33;;;1.90;32.93
63339;BME280;70568;51.378;-1.342;2023-12-14T07:51:54;100572.84;;;3.34;32.19
63339;BME280;70568;51.378;-1.342;2023-12-14T07:54:22;100576.12;;;3.15;32.33
63339;BME280;70568;51.378;-1.342;2023-12-14T07:56:49;100581.20;;;2.90;33.39
63339;BME280;70568;51.378;-1.342;2023-12-14T07:59:15;100583.73;;;1.94;33.51
63339;BME280;70568;51.378;-1.342;2023-12-14T08:01:42;100584.00;;;3.61;32.32
63339;BME280;70568;51.378;-1.342;2023-12-14T08:04:08;100584.11;;;2.45;32.60
63339;BME280;70568;51.378;-1.342;2023-12-14T08:06:35;100582.87;;;3.39;32.23
63339;BME280;70568;51.378;-1.342;2023-12-14T08:09:03;100588.13;;;3.23;33.27
63339;BME280;70568;51.378;-1.342;2023-12-14T08:11:30;100584.01;;;1.91;33.65
63339;BME280;70568;51.378;-1.342;2023-12-14T08:13:56;100582.60;;;1.91;33.61
63339;BME280;70568;51.378;-1.342;2023-12-14T08:16:23;100583.38;;;2.77;33.11
63339;BME280;70568;51.378;-1.342;2023-12-14T08:18:50;100583.06;;;3.00;32.98
63339;BME280;70568;51.378;-1.342;2023-12-14T08:21:17;100584.86;;;2.28;32.60
63339;BME280;70568;51.378;-1.342;2023-12-14T08:23:44;100584.65;;;2.64;33.05
63339;BME280;70568;51.378;-1.342;2023-12-14T08:26:12;100582.64;;;4.20;32.17
63339;BME280;70568;51.378;-1.342;2023-12-14T08:28:38;100589.78;;;3.17;33.29
63339;BME280;70568;51.378;-1.342;2023-12-14T08:31:05;100591.44;;;1.32;33.22
63339;BME280;70568;51.378;-1.342;2023-12-14T08:33:31;100588.20;;;2.71;33.21
63339;BME280;70568;51.378;-1.342;2023-12-14T08:35:58;100594.00;;;2.25;33.94
63339;BME280;70568;51.378;-1.342;2023-12-14T08:38:24;100594.83;;;1.75;35.18
63339;BME280;70568;51.378;-1.342;2023-12-14T08:40:51;100597.39;;;0.91;35.79
63339;BME280;70568;51.378;-1.342;2023-12-14T08:43:18;100600.32;;;1.18;36.17
63339;BME280;70568;51.378;-1.342;2023-12-14T08:45:46;100602.51;;;1.94;36.62
63339;BME280;70568;51.378;-1.342;2023-12-14T08:48:13;100599.95;;;3.22;35.50
63339;BME280;70568;51.378;-1.342;2023-12-14T08:50:40;100595.90;;;2.98;34.23
63339;BME280;70568;51.378;-1.342;2023-12-14T08:53:06;100598.93;;;2.44;34.84
63339;BME280;70568;51.378;-1.342;2023-12-14T08:55:33;100599.30;;;2.20;35.08
63339;BME280;70568;51.378;-1.342;2023-12-14T08:58:00;100599.75;;;1.28;37.25
63339;BME280;70568;51.378;-1.342;2023-12-14T09:00:27;100600.14;;;2.02;36.40
63339;BME280;70568;51.378;-1.342;2023-12-14T09:02:53;100603.37;;;3.26;35.65
63339;BME280;70568;51.378;-1.342;2023-12-14T09:05:20;100602.69;;;1.89;36.13
63339;BME280;70568;51.378;-1.342;2023-12-14T09:07:47;100607.63;;;1.98;36.96
63339;BME280;70568;51.378;-1.342;2023-12-14T09:10:14;100615.79;;;2.48;36.21
63339;BME280;70568;51.378;-1.342;2023-12-14T09:12:41;100609.46;;;2.85;35.12
63339;BME280;70568;51.378;-1.342;2023-12-14T09:15:08;100608.85;;;1.61;35.94
63339;BME280;70568;51.378;-1.342;2023-12-14T09:17:35;100608.74;;;1.39;36.71
63339;BME280;70568;51.378;-1.342;2023-12-14T09:20:03;100607.63;;;1.64;37.18
63339;BME280;70568;51.378;-1.342;2023-12-14T09:22:31;100614.98;;;2.52;37.50
63339;BME280;70568;51.378;-1.342;2023-12-14T09:24:57;100620.77;;;3.35;36.77
63339;BME280;70568;51.378;-1.342;2023-12-14T09:27:24;100622.71;;;1.91;37.15
63339;BME280;70568;51.378;-1.342;2023-12-14T09:29:50;100621.65;;;2.22;37.56
63339;BME280;70568;51.378;-1.342;2023-12-14T09:32:17;100622.94;;;2.10;38.08
63339;BME280;70568;51.378;-1.342;2023-12-14T09:34:45;100623.84;;;1.98;37.40
63339;BME280;70568;51.378;-1.342;2023-12-14T09:37:11;100623.71;;;2.43;37.19
63339;BME280;70568;51.378;-1.342;2023-12-14T09:39:38;100626.66;;;2.60;37.49
63339;BME280;70568;51.378;-1.342;2023-12-14T09:42:06;100626.19;;;-0.61;41.07
63339;BME280;70568;51.378;-1.342;2023-12-14T09:44:35;100626.77;;;1.11;39.39
63339;BME280;70568;51.378;-1.342;2023-12-14T09:47:02;100631.01;;;1.61;38.95
63339;BME280;70568;51.378;-1.342;2023-12-14T09:49:30;100633.45;;;2.39;39.79
63339;BME280;70568;51.378;-1.342;2023-12-14T09:51:57;100638.15;;;1.25;39.66
63339;BME280;70568;51.378;-1.342;2023-12-14T09:54:25;100632.76;;;1.50;38.87
63339;BME280;70568;51.378;-1.342;2023-12-14T09:56:53;100631.09;;;3.03;37.53
63339;BME280;70568;51.378;-1.342;2023-12-14T09:59:19;100630.78;;;2.12;38.01
63339;BME280;70568;51.378;-1.342;2023-12-14T10:01:47;100628.33;;;2.62;38.55
63339;BME280;70568;51.378;-1.342;2023-12-14T10:04:16;100634.41;;;3.04;38.32
63339;BME280;70568;51.378;-1.342;2023-12-14T10:06:45;100638.58;;;2.89;39.25
63339;BME280;70568;51.378;-1.342;2023-12-14T10:09:11;100639.50;;;2.75;39.72
63339;BME280;70568;51.378;-1.342;2023-12-14T10:11:38;100644.40;;;1.97;39.69
63339;BME280;70568;51.378;-1.342;2023-12-14T10:14:19;100649.11;;;2.42;40.13
63339;BME280;70568;51.378;-1.342;2023-12-14T10:16:46;100647.11;;;3.55;39.43
63339;BME280;70568;51.378;-1.342;2023-12-14T10:19:13;100649.43;;;1.28;41.04
63339;BME280;70568;51.378;-1.342;2023-12-14T10:21:40;100651.93;;;3.78;40.57
63339;BME280;70568;51.378;-1.342;2023-12-14T10:24:06;100655.20;;;2.28;41.82
63339;BME280;70568;51.378;-1.342;2023-12-14T10:26:33;100656.93;;;2.21;43.76
63339;BME280;70568;51.378;-1.342;2023-12-14T10:29:00;100658.71;;;2.68;42.87
63339;BME280;70568;51.378;-1.342;2023-12-14T10:31:27;100654.81;;;3.04;41.22
63339;BME280;70568;51.378;-1.342;2023-12-14T10:33:54;100658.03;;;3.35;42.14
63339;BME280;70568;51.378;-1.342;2023-12-14T10:36:24;100657.36;;;1.93;42.16
63339;BME280;70568;51.378;-1.342;2023-12-14T10:38:52;100659.46;;;2.55;41.91
63339;BME280;70568;51.378;-1.342;2023-12-14T10:41:21;100658.14;;;3.38;42.03
63339;BME280;70568;51.378;-1.342;2023-12-14T10:43:48;100663.63;;;3.65;41.35
63339;BME280;70568;51.378;-1.342;2023-12-14T10:46:18;100660.57;;;4.15;40.54
63339;BME280;70568;51.378;-1.342;2023-12-14T10:48:47;100666.47;;;2.92;42.39
63339;BME280;70568;51.378;-1.342;2023-12-14T10:51:15;100667.71;;;2.61;43.27
63339;BME280;70568;51.378;-1.342;2023-12-14T10:53:44;100669.11;;;3.66;43.52
63339;BME280;70568;51.378;-1.342;2023-12-14T10:56:11;100671.02;;;2.47;42.48
63339;BME280;70568;51.378;-1.342;2023-12-14T10:58:46;100666.57;;;3.15;43.48
63339;BME280;70568;51.378;-1.342;2023-12-14T11:01:14;100663.88;;;3.07;42.51
63339;BME280;70568;51.378;-1.342;2023-12-14T11:03:42;100664.88;;;2.49;44.56
63339;BME280;70568;51.378;-1.342;2023-12-14T11:06:20;100663.99;;;3.24;43.85
63339;BME280;70568;51.378;-1.342;2023-12-14T11:08:47;100664.55;;;3.59;45.65
63339;BME280;70568;51.378;-1.342;2023-12-14T11:11:15;100660.58;;;1.60;45.72
63339;BME280;70568;51.378;-1.342;2023-12-14T11:13:43;100657.62;;;3.68;44.13
63339;BME280;70568;51.378;-1.342;2023-12-14T11:16:10;100660.04;;;2.94;44.99
63339;BME280;70568;51.378;-1.342;2023-12-14T11:18:36;100660.14;;;2.17;47.61
63339;BME280;70568;51.378;-1.342;2023-12-14T11:21:03;100661.22;;;1.93;48.23
63339;BME280;70568;51.378;-1.342;2023-12-14T11:23:32;100656.61;;;2.98;46.96
63339;BME280;70568;51.378;-1.342;2023-12-14T11:26:02;100658.03;;;2.14;48.42
63339;BME280;70568;51.378;-1.342;2023-12-14T11:28:29;100658.86;;;2.72;49.43
63339;BME280;70568;51.378;-1.342;2023-12-14T11:30:56;100663.53;;;2.99;49.32
63339;BME280;70568;51.378;-1.342;2023-12-14T11:33:23;100659.10;;;4.16;46.18
63339;BME280;70568;51.378;-1.342;2023-12-14T11:35:50;100662.01;;;2.01;47.72
63339;BME280;70568;51.378;-1.342;2023-12-14T11:38:18;100659.37;;;2.24;44.65
63339;BME280;70568;51.378;-1.342;2023-12-14T11:40:45;100661.17;;;2.43;43.76
63339;BME280;70568;51.378;-1.342;2023-12-14T11:43:12;100662.06;;;2.10;43.60
63339;BME280;70568;51.378;-1.342;2023-12-14T11:45:39;100668.19;;;4.01;43.50
63339;BME280;70568;51.378;-1.342;2023-12-14T11:48:08;100668.80;;;3.95;44.56
63339;BME280;70568;51.378;-1.342;2023-12-14T11:50:35;100663.67;;;3.72;43.67
63339;BME280;70568;51.378;-1.342;2023-12-14T11:53:03;100666.72;;;3.84;43.98
63339;BME280;70568;51.378;-1.342;2023-12-14T11:55:30;100667.99;;;3.21;44.97
63339;BME280;70568;51.378;-1.342;2023-12-14T11:57:58;100668.58;;;3.90;46.10
63339;BME280;70568;51.378;-1.342;2023-12-14T12:00:25;100665.38;;;3.78;46.67
63339;BME280;70568;51.378;-1.342;2023-12-14T12:03:07;100667.22;;;2.21;45.82
63339;BME280;70568;51.378;-1.342;2023-12-14T12:05:36;100665.07;;;4.69;43.76
63339;BME280;70568;51.378;-1.342;2023-12-14T12:08:03;100663.32;;;4.32;42.68
63339;BME280;70568;51.378;-1.342;2023-12-14T12:10:31;100666.25;;;3.54;44.55
63339;BME280;70568;51.378;-1.342;2023-12-14T12:13:02;100666.93;;;2.56;44.65
63339;BME280;70568;51.378;-1.342;2023-12-14T12:15:29;100669.65;;;4.35;44.83
63339;BME280;70568;51.378;-1.342;2023-12-14T12:17:56;100664.67;;;4.40;45.48
63339;BME280;70568;51.378;-1.342;2023-12-14T12:20:23;100660.19;;;3.84;44.33
63339;BME280;70568;51.378;-1.342;2023-12-14T12:22:49;100664.56;;;4.98;45.86
63339;BME280;70568;51.378;-1.342;2023-12-14T12:25:16;100665.11;;;3.36;46.06
63339;BME280;70568;51.378;-1.342;2023-12-14T12:27:42;100665.40;;;4.42;45.39
63339;BME280;70568;51.378;-1.342;2023-12-14T12:30:10;100663.94;;;4.02;45.98
63339;BME280;70568;51.378;-1.342;2023-12-14T12:32:37;100664.84;;;4.01;47.37
63339;BME280;70568;51.378;-1.342;2023-12-14T12:35:05;100664.94;;;4.11;46.15
63339;BME280;70568;51.378;-1.342;2023-12-14T12:37:31;100662.56;;;4.27;46.66
63339;BME280;70568;51.378;-1.342;2023-12-14T12:39:58;100662.78;;;3.66;46.48
63339;BME280;70568;51.378;-1.342;2023-12-14T12:42:24;100653.73;;;4.30;44.78
63339;BME280;70568;51.378;-1.342;2023-12-14T12:44:51;100656.03;;;4.66;42.93
63339;BME280;70568;51.378;-1.342;2023-12-14T12:47:18;100659.78;;;3.87;45.51